Time;durP1;ratioP1;P1;durP2;ratioP2;P2;SDS_P1;SDS_P2;PMS_P1;PMS_P2;Temp;Humidity;BMP_temperature;BMP_pressure;BME280_temperature;BME280_humidity;BME280_pressure;Samples;Min_cycle;Max_cycle;Signal;HPM_P1;HPM_P2
2021/03/17 00:00:43;;;;;;;50.33;37.13;;;;;;;2.48;85.65;98758.90;123805;1102;64937;-80
2021/03/17 00:03:18;;;;;;;50.33;37.20;;;;;;;2.48;85.48;98756.27;123754;1102;65301;-78
2021/03/17 00:05:45;;;;;;;49.23;37.00;;;;;;;2.49;85.98;98749.23;123728;1102;64969;-81
2021/03/17 00:08:11;;;;;;;56.33;40.20;;;;;;;2.47;85.90;98748.42;123763;1102;64891;-79
2021/03/17 00:10:42;;;;;;;51.27;33.37;;;;;;;2.48;85.91;98750.16;123763;1102;64904;-79
2021/03/17 00:13:08;;;;;;;44.57;32.17;;;;;;;2.49;86.25;98746.59;123823;1102;64857;-79
2021/03/17 00:15:40;;;;;;;59.10;36.53;;;;;;;2.49;86.23;98743.97;123352;1102;64969;-78
2021/03/17 00:18:10;;;;;;;48.10;33.83;;;;;;;2.51;85.55;98750.03;123454;1102;64888;-80
2021/03/17 00:20:37;;;;;;;49.00;36.15;;;;;;;2.52;85.34;98744.70;123758;1102;64934;-79
2021/03/17 00:23:04;;;;;;;44.77;34.03;;;;;;;2.52;85.84;98742.06;123407;1102;64914;-80
2021/03/17 00:25:32;;;;;;;49.47;36.43;;;;;;;2.52;85.54;98752.59;123407;1105;64944;-78
2021/03/17 00:28:02;;;;;;;43.55;34.20;;;;;;;2.52;85.79;98749.11;123461;1102;65075;-80
2021/03/17 00:30:30;;;;;;;42.83;33.08;;;;;;;2.52;85.94;98744.70;123418;1102;66218;-79
2021/03/17 00:32:59;;;;;;;41.80;31.20;;;;;;;2.50;85.90;98748.30;123779;1102;64860;-80
2021/03/17 00:35:29;;;;;;;42.63;32.00;;;;;;;2.48;85.35;98742.27;123864;1102;64905;-79
2021/03/17 00:37:57;;;;;;;41.87;28.53;;;;;;;2.51;85.81;98747.41;123722;1102;64828;-79
2021/03/17 00:40:25;;;;;;;39.33;29.07;;;;;;;2.48;85.26;98737.86;123388;1102;64936;-81
2021/03/17 00:42:52;;;;;;;42.27;29.43;;;;;;;2.46;85.54;98726.53;123842;1102;64933;-78
2021/03/17 00:45:19;;;;;;;36.13;29.33;;;;;;;2.46;85.56;98725.68;123380;1102;64888;-78
2021/03/17 00:47:45;;;;;;;39.87;29.37;;;;;;;2.45;85.64;98732.72;123719;1102;64882;-79
2021/03/17 00:50:14;;;;;;;41.47;29.53;;;;;;;2.45;85.56;98732.72;123762;1102;64863;-79
2021/03/17 00:52:41;;;;;;;38.87;30.53;;;;;;;2.44;85.53;98727.50;123767;1102;64988;-78
2021/03/17 00:55:09;;;;;;;45.63;31.63;;;;;;;2.43;85.84;98728.44;123832;1102;64923;-80
2021/03/17 00:57:35;;;;;;;43.17;31.10;;;;;;;2.44;85.41;98723.09;123471;1102;65017;-79
2021/03/17 01:00:05;;;;;;;42.20;30.75;;;;;;;2.45;85.75;98737.98;123807;1102;64831;-79
2021/03/17 01:02:31;;;;;;;48.67;33.57;;;;;;;2.43;85.60;98725.80;123801;1102;64923;-78
2021/03/17 01:04:58;;;;;;;51.33;35.70;;;;;;;2.42;85.94;98735.44;123778;1102;65033;-79
2021/03/17 01:07:24;;;;;;;52.30;35.87;;;;;;;2.44;85.41;98735.39;123759;1102;64825;-79
2021/03/17 01:09:51;;;;;;;49.67;35.20;;;;;;;2.42;85.64;98735.44;123410;1102;64985;-79
2021/03/17 01:12:17;;;;;;;43.40;33.63;;;;;;;2.44;85.73;98738.02;123815;1102;64889;-79
2021/03/17 01:14:44;;;;;;;46.37;33.42;;;;;;;2.44;85.50;98738.02;123762;1102;65393;-79
2021/03/17 01:17:11;;;;;;;44.50;33.33;;;;;;;2.45;85.80;98739.73;123762;1102;65005;-78
2021/03/17 01:19:37;;;;;;;46.47;36.40;;;;;;;2.45;85.68;98731.84;123393;1102;65029;-78
2021/03/17 01:22:04;;;;;;;49.03;37.70;;;;;;;2.45;85.88;98724.83;123732;1102;64937;-79
2021/03/17 01:24:31;;;;;;;52.17;38.73;;;;;;;2.46;85.19;98726.53;123776;1101;64885;-79
2021/03/17 01:26:58;;;;;;;58.17;38.47;;;;;;;2.46;85.50;98734.42;123765;1102;64905;-79
2021/03/17 01:29:24;;;;;;;59.47;39.30;;;;;;;2.46;85.82;98726.53;123761;1102;65049;-79
2021/03/17 01:31:50;;;;;;;53.45;37.70;;;;;;;2.47;85.43;98736.13;123775;1101;64869;-79
2021/03/17 01:34:17;;;;;;;55.63;39.53;;;;;;;2.49;85.26;98730.81;123765;1102;64963;-79
2021/03/17 01:36:44;;;;;;;54.90;40.70;;;;;;;2.48;85.48;98729.97;123771;1102;65441;-79
2021/03/17 01:39:10;;;;;;;56.97;39.33;;;;;;;2.51;85.62;98731.62;123776;1102;65014;-80
2021/03/17 01:41:36;;;;;;;54.50;41.07;;;;;;;2.53;85.18;98728.02;123392;1102;64992;-79
2021/03/17 01:44:03;;;;;;;50.47;37.10;;;;;;;2.55;85.80;98730.57;123410;1102;64875;-79
2021/03/17 01:46:30;;;;;;;56.07;41.20;;;;;;;2.55;85.60;98731.42;123507;1102;64997;-80
2021/03/17 01:48:56;;;;;;;53.43;37.77;;;;;;;2.52;85.30;98730.69;123825;1102;64885;-79
2021/03/17 01:51:23;;;;;;;49.83;35.87;;;;;;;2.50;85.48;98732.52;123495;1102;64895;-79
2021/03/17 01:53:50;;;;;;;48.83;35.23;;;;;;;2.47;85.13;98733.49;123741;1102;65055;-79
2021/03/17 01:56:17;;;;;;;49.70;33.93;;;;;;;2.46;85.68;98739.68;123709;1102;64981;-79
2021/03/17 01:58:43;;;;;;;49.87;34.67;;;;;;;2.46;85.71;98733.57;123724;1101;64889;-79
2021/03/17 02:01:10;;;;;;;46.45;33.85;;;;;;;2.44;85.65;98735.39;123432;1102;64966;-80
2021/03/17 02:03:37;;;;;;;49.87;34.13;;;;;;;2.43;85.57;98734.54;123773;1102;64931;-79
2021/03/17 02:06:04;;;;;;;46.87;32.90;;;;;;;2.41;85.63;98731.11;123766;1101;64937;-79
2021/03/17 02:08:41;;;;;;;45.17;33.80;;;;;;;2.43;85.41;98733.69;123798;1102;64885;-80
2021/03/17 02:11:10;;;;;;;44.27;32.63;;;;;;;2.41;85.65;98734.59;123796;1102;64892;-79
2021/03/17 02:14:03;;;;;;;48.90;35.10;;;;;;;2.40;85.32;98732.88;123817;1102;64889;-80
2021/03/17 02:16:48;;;;;;;44.47;32.47;;;;;;;2.40;85.58;98738.14;123757;1102;64879;-79
2021/03/17 02:19:28;;;;;;;48.10;32.50;;;;;;;2.40;85.31;98737.30;123764;1102;65011;-79
2021/03/17 02:22:23;;;;;;;48.23;34.23;;;;;;;2.43;85.73;98733.69;123759;1102;65229;-79
2021/03/17 02:25:39;;;;;;;48.93;36.30;;;;;;;2.44;85.73;98732.77;123772;1102;65267;-78
2021/03/17 02:28:08;;;;;;;53.40;38.53;;;;;;;2.43;85.44;98731.91;123255;1105;65017;-79
2021/03/17 02:31:10;;;;;;;53.70;37.03;;;;;;;2.43;85.32;98731.91;123274;1105;65193;-79
2021/03/17 02:33:45;;;;;;;55.87;38.80;;;;;;;2.46;85.26;98725.68;123631;1102;65009;-79
2021/03/17 02:36:34;;;;;;;51.17;37.70;;;;;;;2.48;85.23;98726.48;123839;1102;64987;-79
2021/03/17 02:39:10;;;;;;;63.37;45.27;;;;;;;2.48;85.71;98735.23;123817;1102;65333;-79
2021/03/17 02:41:59;;;;;;;69.80;45.90;;;;;;;2.49;85.46;98731.67;123806;1102;64921;-77
2021/03/17 02:44:26;;;;;;;61.80;42.90;;;;;;;2.48;85.73;98727.34;123790;1102;64885;-78
2021/03/17 02:46:54;;;;;;;70.53;46.40;;;;;;;2.48;85.45;98729.97;123753;1102;65075;-79
2021/03/17 02:49:24;;;;;;;64.47;43.27;;;;;;;2.49;85.26;98738.70;123829;1102;64937;-80
2021/03/17 02:52:00;;;;;;;62.83;42.10;;;;;;;2.51;85.21;98721.09;123806;1102;64905;-79
2021/03/17 02:54:29;;;;;;;60.33;40.33;;;;;;;2.52;85.11;98728.06;123777;1102;64875;-79
2021/03/17 02:57:00;;;;;;;53.90;38.50;;;;;;;2.53;85.52;98730.64;123884;1102;64931;-78
2021/03/17 02:59:28;;;;;;;59.50;39.40;;;;;;;2.53;85.09;98728.02;123758;1102;64892;-80
2021/03/17 03:01:59;;;;;;;62.73;42.83;;;;;;;2.55;85.40;98727.94;123784;1102;64959;-80
2021/03/17 03:04:27;;;;;;;61.73;42.90;;;;;;;2.54;85.02;98720.98;123831;1102;65342;-79
2021/03/17 03:06:57;;;;;;;63.77;42.50;;;;;;;2.52;85.38;98723.66;123812;1102;64774;-79
2021/03/17 03:09:26;;;;;;;60.48;41.55;;;;;;;2.54;85.46;98724.45;123789;1102;64889;-80
2021/03/17 03:11:56;;;;;;;64.57;43.90;;;;;;;2.53;85.17;98719.27;123788;1102;64927;-79
2021/03/17 03:14:25;;;;;;;60.50;42.97;;;;;;;2.56;85.63;98714.74;123816;1102;64828;-79
2021/03/17 03:16:55;;;;;;;54.93;39.40;;;;;;;2.58;85.21;98714.66;123443;1102;64937;-79
2021/03/17 03:19:24;;;;;;;57.13;41.02;;;;;;;2.61;85.44;98720.68;123793;1102;64907;-79
2021/03/17 03:21:55;;;;;;;58.50;41.13;;;;;;;2.64;85.43;98720.55;123807;1102;64904;-79
2021/03/17 03:24:22;;;;;;;60.20;41.70;;;;;;;2.66;85.05;98720.52;123406;1101;64907;-80
2021/03/17 03:26:52;;;;;;;60.93;42.33;;;;;;;2.65;85.34;98718.77;123815;1102;64904;-79
2021/03/17 03:29:19;;;;;;;;;;;;;;;2.64;85.28;98720.55;123811;1101;64930;-79
2021/03/17 03:31:47;;;;;;;63.45;41.35;;;;;;;2.62;85.55;98717.12;123800;1102;64917;-80
2021/03/17 03:34:15;;;;;;;61.20;43.57;;;;;;;2.62;85.50;98718.91;123793;1102;64984;-79
2021/03/17 03:36:43;;;;;;;56.13;40.23;;;;;;;2.64;85.06;98723.19;123766;1102;64984;-79
2021/03/17 03:39:10;;;;;;;60.57;43.73;;;;;;;2.66;85.47;98722.26;123813;1102;64908;-78
2021/03/17 03:41:36;;;;;;;60.83;42.93;;;;;;;2.64;84.84;98725.81;123756;1102;64908;-79
2021/03/17 03:44:04;;;;;;;56.40;40.85;;;;;;;2.65;85.48;98718.77;123778;1101;64899;-79
2021/03/17 03:46:33;;;;;;;55.77;39.87;;;;;;;2.64;84.68;98730.23;123770;1101;64930;-80
2021/03/17 03:49:01;;;;;;;56.67;40.63;;;;;;;2.62;85.15;98730.27;123775;1102;64934;-80
2021/03/17 03:51:28;;;;;;;55.97;38.87;;;;;;;2.66;85.04;98732.78;123740;1102;64908;-79
2021/03/17 03:54:21;;;;;;;53.63;38.03;;;;;;;2.66;84.79;98731.03;123815;1102;64889;-78
2021/03/17 03:57:08;;;;;;;47.30;34.60;;;;;;;2.67;85.46;98729.25;123425;1105;64940;-79
2021/03/17 03:59:41;;;;;;;54.00;38.57;;;;;;;2.63;84.71;98734.64;123748;1102;64828;-79
2021/03/17 04:02:11;;;;;;;57.13;38.80;;;;;;;2.62;85.06;98727.64;123790;1102;64995;-78
2021/03/17 04:04:42;;;;;;;59.73;41.10;;;;;;;2.62;85.18;98737.31;123744;1102;64991;-78
2021/03/17 04:07:11;;;;;;;61.17;41.07;;;;;;;2.61;85.51;98736.47;123416;1102;64837;-79
2021/03/17 04:09:50;;;;;;;54.83;40.20;;;;;;;2.63;84.86;98732.01;123771;1102;64854;-79
2021/03/17 04:12:21;;;;;;;55.23;40.07;;;;;;;2.66;85.00;98731.03;123835;1102;64987;-79
2021/03/17 04:14:50;;;;;;;55.20;38.60;;;;;;;2.67;85.59;98730.10;123443;1102;64937;-79
2021/03/17 04:17:52;;;;;;;48.37;34.77;;;;;;;2.64;85.18;98725.81;123790;1101;64908;-78
2021/03/17 04:20:26;;;;;;;50.43;36.87;;;;;;;2.62;84.83;98732.05;123698;1102;64898;-79
2021/03/17 04:22:55;;;;;;;53.45;37.75;;;;;;;2.61;85.20;98736.47;123797;1102;64995;-79
2021/03/17 04:25:22;;;;;;;53.73;37.67;;;;;;;2.59;84.87;98733.03;123420;1102;64966;-78
2021/03/17 04:27:52;;;;;;;59.30;41.90;;;;;;;2.60;85.50;98736.52;123755;1102;64918;-79
2021/03/17 04:30:20;;;;;;;52.73;36.73;;;;;;;2.61;85.45;98736.47;123828;1102;64898;-78
2021/03/17 04:32:49;;;;;;;52.70;36.23;;;;;;;2.57;84.84;98729.59;123832;1102;64905;-78
2021/03/17 04:35:17;;;;;;;53.67;38.63;;;;;;;2.56;84.80;98734.94;123807;1102;64940;-78
2021/03/17 04:37:47;;;;;;;56.30;37.37;;;;;;;2.56;85.52;98735.78;123736;1102;64837;-78
2021/03/17 04:40:14;;;;;;;51.93;34.83;;;;;;;2.58;84.93;98744.48;123788;1102;65438;-79
2021/03/17 04:42:43;;;;;;;46.83;34.10;;;;;;;2.52;84.93;98743.84;123793;1102;64947;-79
2021/03/17 04:45:11;;;;;;;51.10;35.43;;;;;;;2.46;84.90;98742.31;123831;1102;64835;-79
2021/03/17 04:47:41;;;;;;;49.37;33.40;;;;;;;2.41;85.15;98737.22;123833;1101;64882;-79
2021/03/17 04:50:17;;;;;;;51.40;34.27;;;;;;;2.39;85.60;98746.93;123828;1102;64841;-79
2021/03/17 04:52:44;;;;;;;49.43;36.53;;;;;;;2.41;85.60;98744.26;123775;1102;64908;-79
2021/03/17 04:55:15;;;;;;;49.07;35.67;;;;;;;2.43;85.05;98745.06;123799;1102;64934;-79
2021/03/17 04:57:44;;;;;;;46.10;33.97;;;;;;;2.44;85.38;98746.77;123792;1102;64870;-79
2021/03/17 05:00:16;;;;;;;50.00;34.67;;;;;;;2.46;85.00;98746.72;123813;1102;65393;-79
2021/03/17 05:02:49;;;;;;;52.53;36.33;;;;;;;2.46;85.17;98750.20;123791;1102;64892;-79
2021/03/17 05:05:16;;;;;;;54.37;37.73;;;;;;;2.47;84.87;98748.42;123762;1102;65144;-78
2021/03/17 05:07:44;;;;;;;55.70;39.37;;;;;;;2.46;85.33;98744.94;123794;1102;65007;-79
2021/03/17 05:10:12;;;;;;;55.63;38.43;;;;;;;2.46;85.08;98750.20;123829;1101;64898;-79
2021/03/17 05:12:39;;;;;;;56.83;39.27;;;;;;;2.48;85.42;98750.16;123781;1102;64908;-79
2021/03/17 05:15:08;;;;;;;47.07;34.53;;;;;;;2.47;85.50;98751.91;123826;1102;64899;-79
2021/03/17 05:17:35;;;;;;;55.43;40.00;;;;;;;2.47;85.52;98759.80;123763;1102;64873;-79
2021/03/17 05:20:09;;;;;;;58.40;40.77;;;;;;;2.50;85.48;98759.70;123430;1102;64960;-79
2021/03/17 05:22:37;;;;;;;58.33;38.80;;;;;;;2.50;85.03;98753.56;123774;1102;64911;-79
2021/03/17 05:25:06;;;;;;;59.43;40.03;;;;;;;2.48;85.26;98755.42;123777;1102;64886;-80
2021/03/17 05:27:35;;;;;;;57.80;40.60;;;;;;;2.47;85.53;98757.16;123782;1102;64873;-79
2021/03/17 05:30:10;;;;;;;53.08;38.13;;;;;;;2.48;85.39;98764.16;123442;1102;64867;-78
2021/03/17 05:32:40;;;;;;;52.37;36.07;;;;;;;2.51;85.25;98765.81;123485;1101;64917;-79
2021/03/17 05:35:09;;;;;;;47.63;35.07;;;;;;;2.52;85.30;98759.63;123719;1102;64860;-78
2021/03/17 05:37:37;;;;;;;55.80;35.60;;;;;;;2.56;84.87;98766.50;123837;1102;64905;-79
2021/03/17 05:40:10;;;;;;;47.83;34.90;;;;;;;2.57;84.79;98763.80;123766;1102;64896;-80
2021/03/17 05:42:41;;;;;;;57.33;39.03;;;;;;;2.56;85.00;98756.83;123443;1102;65129;-81
2021/03/17 05:45:11;;;;;;;55.40;38.30;;;;;;;2.57;84.52;98766.42;123805;1102;64971;-77
2021/03/17 05:47:44;;;;;;;58.83;40.60;;;;;;;2.57;84.70;98771.69;123439;1102;64956;-79
2021/03/17 05:50:14;;;;;;;60.65;41.50;;;;;;;2.61;84.84;98777.70;123789;1102;64889;-78
2021/03/17 05:52:41;;;;;;;58.63;39.35;;;;;;;2.62;85.01;98771.52;123474;1102;64909;-79
2021/03/17 05:55:09;;;;;;;56.77;40.10;;;;;;;2.67;85.01;98779.24;123787;1102;64963;-79
2021/03/17 05:57:38;;;;;;;55.43;36.77;;;;;;;2.68;84.99;98781.80;123775;1102;65357;-79
2021/03/17 06:00:07;;;;;;;49.33;36.00;;;;;;;2.71;84.40;98773.78;123771;1102;64895;-79
2021/03/17 06:02:35;;;;;;;46.85;32.78;;;;;;;2.73;84.13;98771.95;123443;1102;64936;-78
2021/03/17 06:05:04;;;;;;;44.70;34.40;;;;;;;2.72;84.68;98770.25;123803;1101;64914;-79
2021/03/17 06:07:45;;;;;;;45.53;35.40;;;;;;;2.74;84.36;98780.70;123735;1102;64914;-79
2021/03/17 06:10:12;;;;;;;44.17;32.00;;;;;;;2.74;84.44;98770.17;123763;1102;64956;-79
2021/03/17 06:12:39;;;;;;;45.70;33.67;;;;;;;2.76;84.49;98771.83;123737;1102;64962;-80
2021/03/17 06:15:07;;;;;;;46.47;33.70;;;;;;;2.79;84.06;98786.64;123391;1102;64912;-79
2021/03/17 06:17:36;;;;;;;48.40;36.83;;;;;;;2.81;83.90;98788.30;123801;1102;64889;-79
2021/03/17 06:20:06;;;;;;;52.57;40.80;;;;;;;2.83;84.32;98783.84;123802;1102;64905;-80
2021/03/17 06:22:36;;;;;;;52.95;38.20;;;;;;;2.84;84.31;98790.84;123819;1101;64930;-79
2021/03/17 06:25:05;;;;;;;50.80;35.20;;;;;;;2.85;84.14;98796.95;123757;1102;64991;-79
2021/03/17 06:27:37;;;;;;;42.60;31.05;;;;;;;2.85;83.88;98808.33;123834;1102;64934;-79
2021/03/17 06:30:06;;;;;;;47.93;34.93;;;;;;;2.88;84.25;98804.72;123795;1102;64937;-79
2021/03/17 06:32:34;;;;;;;48.20;35.37;;;;;;;2.90;84.14;98807.28;123384;1102;64979;-79
2021/03/17 06:35:20;;;;;;;51.47;36.07;;;;;;;2.91;83.97;98804.59;123788;1102;64965;-79
2021/03/17 06:37:47;;;;;;;50.13;37.17;;;;;;;2.92;83.50;98802.82;123441;1102;65026;-80
2021/03/17 06:40:24;;;;;;;53.20;36.93;;;;;;;2.92;83.37;98813.34;123417;1102;65042;-77
2021/03/17 06:42:53;;;;;;;44.57;32.20;;;;;;;2.86;82.74;98810.03;123745;1102;64895;-80
2021/03/17 06:45:39;;;;;;;41.97;32.67;;;;;;;2.83;82.84;98820.69;123813;1102;64927;-78
2021/03/17 06:48:21;;;;;;;42.47;30.50;;;;;;;2.85;82.98;98818.01;123808;1102;64888;-79
2021/03/17 06:51:09;;;;;;;44.83;31.73;;;;;;;2.87;82.98;98821.45;123792;1102;64959;-79
2021/03/17 06:53:35;;;;;;;42.80;32.70;;;;;;;2.93;82.54;98822.98;123784;1102;64908;-80
2021/03/17 06:56:15;;;;;;;43.60;32.73;;;;;;;2.98;82.44;98831.56;123745;1102;64917;-80
2021/03/17 06:58:46;;;;;;;48.30;35.75;;;;;;;3.00;81.60;98833.22;123380;1102;64891;-80
2021/03/17 07:01:36;;;;;;;42.87;31.50;;;;;;;3.09;81.59;98826.72;123707;1102;64959;-79
2021/03/17 07:04:05;;;;;;;43.60;31.20;;;;;;;3.21;81.21;98828.88;123709;1102;65380;-78
2021/03/17 07:06:33;;;;;;;46.50;34.90;;;;;;;3.34;81.39;98831.00;123690;1102;64863;-78
2021/03/17 07:09:13;;;;;;;45.60;30.87;;;;;;;3.46;81.17;98836.64;123685;1102;64857;-78
2021/03/17 07:11:41;;;;;;;46.37;34.00;;;;;;;3.54;80.88;98833.70;123742;1102;65176;-78
2021/03/17 07:14:07;;;;;;;38.47;30.27;;;;;;;3.58;79.59;98834.41;123433;1102;64908;-79
2021/03/17 07:16:47;;;;;;;46.70;31.97;;;;;;;3.63;79.68;98827.18;123694;1102;64889;-79
2021/03/17 07:19:39;;;;;;;37.13;28.03;;;;;;;3.69;79.19;98827.80;123768;1102;64841;-80
2021/03/17 07:22:07;;;;;;;37.77;28.13;;;;;;;3.77;78.87;98826.63;123673;1102;65320;-79
2021/03/17 07:24:35;;;;;;;36.60;27.40;;;;;;;3.87;78.77;98834.08;123733;1102;64882;-80
2021/03/17 07:27:22;;;;;;;37.53;27.93;;;;;;;3.94;78.36;98832.88;123772;1102;64908;-79
2021/03/17 07:29:58;;;;;;;37.70;28.10;;;;;;;4.00;77.05;98836.17;123701;1102;64860;-80
2021/03/17 07:32:25;;;;;;;35.53;27.27;;;;;;;3.99;77.58;98839.75;123769;1102;64938;-81
2021/03/17 07:34:52;;;;;;;38.00;27.90;;;;;;;4.05;77.35;98835.05;123461;1102;64918;-79
2021/03/17 07:37:25;;;;;;;35.33;27.20;;;;;;;4.09;76.74;98830.52;123810;1102;64991;-79
2021/03/17 07:39:53;;;;;;;34.85;26.25;;;;;;;4.16;77.13;98840.74;123799;1102;64960;-79
2021/03/17 07:42:21;;;;;;;35.67;26.50;;;;;;;4.31;76.90;98833.92;123799;1102;65342;-80
2021/03/17 07:44:47;;;;;;;34.77;26.00;;;;;;;4.48;76.59;98824.42;123840;1101;64908;-80
2021/03/17 07:47:14;;;;;;;31.17;24.77;;;;;;;4.62;75.28;98829.92;123800;1102;64939;-79
2021/03/17 07:49:43;;;;;;;32.73;25.13;;;;;;;4.75;75.18;98822.30;123374;1102;64934;-79
2021/03/17 07:52:19;;;;;;;30.95;24.65;;;;;;;4.89;76.10;98833.07;123432;1102;64930;-79
2021/03/17 07:54:50;;;;;;;34.47;24.57;;;;;;;4.90;75.60;98826.87;123442;1102;64930;-80
2021/03/17 07:57:17;;;;;;;31.70;25.55;;;;;;;4.86;74.55;98830.58;123403;1103;65036;-79
2021/03/17 07:59:44;;;;;;;26.37;22.40;;;;;;;4.75;73.68;98838.99;123713;1102;64952;-79
2021/03/17 08:02:12;;;;;;;31.27;24.83;;;;;;;4.72;74.70;98839.14;123678;1102;65043;-80
2021/03/17 08:04:39;;;;;;;32.73;24.97;;;;;;;4.75;73.81;98838.14;123643;1102;64870;-79
2021/03/17 08:07:06;;;;;;;31.53;24.97;;;;;;;4.73;74.26;98842.63;123387;1102;64962;-80
2021/03/17 08:09:32;;;;;;;31.03;24.20;;;;;;;4.74;73.48;98844.33;123351;1101;64898;-81
2021/03/17 08:12:07;;;;;;;35.17;26.27;;;;;;;4.70;74.60;98840.13;123713;1102;64877;-80
2021/03/17 08:14:34;;;;;;;34.87;25.40;;;;;;;4.68;73.14;98834.91;123782;1102;64972;-80
2021/03/17 08:17:00;;;;;;;35.37;26.47;;;;;;;4.72;73.84;98839.14;123818;1102;65011;-79
2021/03/17 08:19:28;;;;;;;38.23;27.50;;;;;;;4.78;74.26;98844.13;123738;1102;64857;-79
2021/03/17 08:21:57;;;;;;;38.27;28.93;;;;;;;4.80;73.69;98844.07;123795;1102;64905;-79
2021/03/17 08:24:33;;;;;;;35.83;27.07;;;;;;;4.80;74.41;98844.07;123821;1102;64908;-80
2021/03/17 08:27:16;;;;;;;35.10;26.83;;;;;;;4.80;73.97;98839.64;123740;1102;64949;-80
2021/03/17 08:29:46;;;;;;;41.67;29.90;;;;;;;4.70;73.79;98848.05;123821;1102;65077;-80
2021/03/17 08:32:15;;;;;;;37.90;26.93;;;;;;;4.54;74.57;98851.38;123783;1102;64908;-79
2021/03/17 08:34:52;;;;;;;39.07;29.23;;;;;;;4.47;74.45;98851.72;123774;1102;64928;-80
2021/03/17 08:37:19;;;;;;;39.33;28.13;;;;;;;4.54;74.68;98855.80;123733;1102;64841;-80
2021/03/17 08:39:47;;;;;;;40.30;28.40;;;;;;;4.72;74.09;98854.98;123742;1102;64899;-80
2021/03/17 08:42:27;;;;;;;40.53;28.70;;;;;;;4.91;73.64;98852.34;123436;1102;65027;-79
2021/03/17 08:44:58;;;;;;;33.90;25.68;;;;;;;5.05;73.12;98856.98;123779;1102;64978;-78
2021/03/17 08:47:33;;;;;;;35.00;25.67;;;;;;;4.96;72.62;98857.42;123754;1102;64911;-79
2021/03/17 08:50:27;;;;;;;35.23;26.77;;;;;;;4.92;72.88;98863.76;123830;1102;64937;-78
2021/03/17 08:52:57;;;;;;;34.17;26.00;;;;;;;5.02;72.93;98857.13;123754;1102;64899;-78
2021/03/17 08:55:33;;;;;;;;;;;;;;;5.23;72.50;98858.75;123473;1102;65003;-79
2021/03/17 08:58:07;;;;;;;36.87;26.83;;;;;;;5.44;71.94;98846.30;123796;1102;64915;-79
2021/03/17 09:01:03;;;;;;;35.20;24.33;;;;;;;5.55;70.56;98850.22;123767;1102;64907;-79
2021/03/17 09:03:32;;;;;;;34.33;24.17;;;;;;;5.69;71.22;98851.27;123813;1102;64825;-78
2021/03/17 09:06:22;;;;;;;32.33;24.25;;;;;;;5.76;70.96;98850.95;123717;1102;65272;-80
2021/03/17 09:09:06;;;;;;;;;;;;;;;5.70;70.35;98852.11;123805;1102;64934;-78
2021/03/17 09:11:32;;;;;;;30.93;23.13;;;;;;;5.64;69.01;98853.27;123729;1102;64981;-79
2021/03/17 09:14:02;;;;;;;29.47;22.17;;;;;;;5.46;68.93;98856.81;123803;1102;64860;-79
2021/03/17 09:16:31;;;;;;;30.57;21.55;;;;;;;5.35;69.38;98857.33;123730;1102;65340;-79
2021/03/17 09:19:14;;;;;;;28.57;22.80;;;;;;;5.35;69.53;98854.69;123728;1102;64991;-80
2021/03/17 09:21:43;;;;;;;28.17;20.90;;;;;;;5.33;69.47;98847.77;123798;1102;65483;-79
2021/03/17 09:24:33;;;;;;;28.27;21.23;;;;;;;5.35;69.71;98859.98;123782;1102;65282;-79
2021/03/17 09:27:04;;;;;;;26.87;21.73;;;;;;;5.62;69.12;98852.48;123760;1102;64886;-78
2021/03/17 09:29:31;;;;;;;25.43;20.83;;;;;;;5.92;69.36;98852.77;123750;1102;64905;-79
2021/03/17 09:31:59;;;;;;;25.37;20.17;;;;;;;6.04;68.01;98856.60;123762;1102;65007;-79
2021/03/17 09:34:31;;;;;;;27.13;19.40;;;;;;;6.11;66.92;98843.94;123374;1102;64888;-79
2021/03/17 09:37:05;;;;;;;29.53;21.63;;;;;;;6.29;67.57;98852.69;123818;1102;64911;-79
2021/03/17 09:39:34;;;;;;;27.17;20.67;;;;;;;6.44;67.31;98853.70;123738;1102;64883;-80
2021/03/17 09:42:00;;;;;;;29.77;21.67;;;;;;;6.44;64.84;98857.20;123802;1102;64911;-79
2021/03/17 09:44:27;;;;;;;24.43;18.97;;;;;;;6.35;66.07;98853.24;123745;1102;64972;-80
2021/03/17 09:46:55;;;;;;;25.75;18.90;;;;;;;6.32;66.50;98856.05;123781;1102;64936;-79
2021/03/17 09:49:25;;;;;;;25.80;18.63;;;;;;;6.27;65.44;98854.59;123441;1102;65278;-79
2021/03/17 09:51:53;;;;;;;;;;;;;;;6.15;64.39;98853.41;123813;1102;65348;-79
2021/03/17 09:54:22;;;;;;;27.73;18.97;;;;;;;6.06;64.57;98860.03;123756;1102;64885;-80
2021/03/17 09:56:51;;;;;;;27.77;18.93;;;;;;;6.08;64.86;98865.23;123756;1102;64965;-79
2021/03/17 09:59:22;;;;;;;29.87;19.60;;;;;;;6.20;65.42;98855.83;123453;1102;64895;-80
2021/03/17 10:02:25;;;;;;;23.10;17.03;;;;;;;6.38;64.06;98846.94;123467;1102;64933;-80
2021/03/17 10:04:57;;;;;;;23.20;16.70;;;;;;;6.47;64.72;98851.73;123755;1102;64907;-79
2021/03/17 10:07:29;;;;;;;23.67;17.40;;;;;;;6.47;63.34;98859.67;123415;1102;65288;-80
2021/03/17 10:09:57;;;;;;;21.83;16.23;;;;;;;6.62;62.95;98865.12;123752;1102;65011;-78
2021/03/17 10:12:27;;;;;;;21.33;16.30;;;;;;;6.70;61.93;98861.12;123811;1102;64900;-78
2021/03/17 10:14:57;;;;;;;21.65;15.50;;;;;;;6.80;62.37;98859.69;123746;1102;64911;-79
2021/03/17 10:17:26;;;;;;;23.80;17.43;;;;;;;6.77;62.53;98854.56;123768;1102;64937;-79
2021/03/17 10:19:56;;;;;;;23.87;17.37;;;;;;;6.55;61.60;98860.13;123797;1102;64907;-79
2021/03/17 10:22:25;;;;;;;22.50;17.35;;;;;;;6.46;61.91;98863.27;123759;1102;64904;-79
2021/03/17 10:24:57;;;;;;;24.43;17.60;;;;;;;6.45;60.84;98855.39;123762;1102;64905;-80
2021/03/17 10:27:26;;;;;;;27.93;18.97;;;;;;;6.42;62.29;98858.20;123759;1102;64892;-81
2021/03/17 10:30:00;;;;;;;22.93;16.33;;;;;;;6.39;60.87;98861.88;123847;1102;65005;-80
2021/03/17 10:32:26;;;;;;;21.73;16.03;;;;;;;6.31;61.35;98862.27;123418;1102;64906;-80
2021/03/17 10:34:53;;;;;;;22.70;15.75;;;;;;;6.37;60.90;98848.73;123763;1102;65045;-80
2021/03/17 10:37:21;;;;;;;23.90;17.60;;;;;;;6.52;59.48;98835.61;123782;1101;64915;-78
2021/03/17 10:39:50;;;;;;;23.50;16.70;;;;;;;6.75;60.88;98847.64;123818;1102;65269;-79
2021/03/17 10:42:23;;;;;;;28.35;18.55;;;;;;;6.98;60.78;98849.90;123789;1102;64889;-80
2021/03/17 10:45:21;;;;;;;21.17;17.47;;;;;;;6.99;59.28;98845.45;123809;1102;64908;-80
2021/03/17 10:47:49;;;;;;;22.23;17.43;;;;;;;7.12;59.76;98851.78;123714;1102;65017;-79
2021/03/17 10:50:32;;;;;;;20.20;15.13;;;;;;;7.10;58.28;98851.00;123824;1102;64975;-80
2021/03/17 10:52:58;;;;;;;21.23;14.27;;;;;;;7.09;57.38;98838.70;123745;1102;65391;-80
2021/03/17 10:55:27;;;;;;;21.07;15.57;;;;;;;7.03;57.53;98841.70;123736;1102;64882;-80
2021/03/17 10:58:08;;;;;;;21.10;15.00;;;;;;;7.04;57.72;98838.11;123803;1102;64930;-79
2021/03/17 11:00:35;;;;;;;17.03;13.13;;;;;;;7.03;57.72;98833.76;123414;1102;65011;-79
2021/03/17 11:03:01;;;;;;;13.93;11.67;;;;;;;7.06;57.17;98832.70;123796;1102;65021;-81
2021/03/17 11:05:32;;;;;;;21.73;12.23;;;;;;;7.10;57.06;98842.20;123805;1102;64882;-81
2021/03/17 11:08:11;;;;;;;17.60;12.50;;;;;;;7.23;57.83;98833.48;123418;1102;65071;-80
2021/03/17 11:10:47;;;;;;;12.07;10.13;;;;;;;7.40;54.30;98821.09;123751;1102;64882;-80
2021/03/17 11:13:19;;;;;;;14.30;11.20;;;;;;;7.37;55.55;98827.43;123828;1102;65149;-80
2021/03/17 11:15:51;;;;;;;16.67;12.03;;;;;;;7.42;56.18;98825.34;123514;1102;64886;-81
2021/03/17 11:18:31;;;;;;;14.03;11.03;;;;;;;7.64;54.86;98827.64;123489;1102;64831;-79
2021/03/17 11:21:07;;;;;;;;;;;;;;;7.68;53.72;98820.34;123786;1102;64885;-79
2021/03/17 11:23:39;;;;;;;13.60;10.60;;;;;;;7.64;53.94;98821.48;123763;1102;64905;-80
2021/03/17 11:26:33;;;;;;;16.47;13.17;;;;;;;7.84;54.72;98815.00;123759;1102;64991;-80
2021/03/17 11:29:20;;;;;;;17.00;12.73;;;;;;;7.84;54.18;98823.81;123750;1102;65026;-84
2021/03/17 11:31:49;;;;;;;17.37;14.20;;;;;;;7.66;54.21;98816.92;123399;1102;64993;-81
2021/03/17 11:34:17;;;;;;;19.75;15.35;;;;;;;7.38;54.42;98813.22;123785;1102;64893;-78
2021/03/17 11:36:45;;;;;;;27.93;16.10;;;;;;;7.14;55.54;98826.06;123390;1102;64950;-78
2021/03/17 11:39:15;;;;;;;21.93;16.27;;;;;;;7.01;56.42;98832.98;123758;1102;65039;-80